KSSC/SSC METAR and TAF weather

Enter ICAO airport designator
Station Type Date Time Source
KSSC METAR 2021/10/24 21:56 UTC NOAA

KSSC 242156Z AUTO 16004KT 10SM CLR 25/12 A3008 RMK AO2 SLP187 T02470120 $


Station Type Date Time Source
KSSC Decoded METAR 2021/10/24 21:56 UTC NOAA

Shaw Air Force Base, SC, United States (KSSC) 33-58N 080-29W 73M
Oct 24, 2021 - 05:56 PM EDT / 2021.10.24 2156 UTC
Wind: from the SSE (160 degrees) at 5 MPH (4 KT):0
Visibility: 10 mile(s):0
Sky conditions: clear
Temperature: 76.5 F (24.7 C)
Dew Point: 53.6 F (12.0 C)
Relative Humidity: 45%
Pressure (altimeter): 30.08 in. Hg (1018 hPa)
ob: KSSC 242156Z AUTO 16004KT 10SM CLR 25/12 A3008 RMK AO2 SLP187 T02470120
cycle: 22

Station Type Date Time Source
KSSC TAF 2021/10/24 20:27 UTC NOAA

TAF TAF
AMD KSSC 242025Z 2420/2521 11006KT 9999 FEW250 QNH3003INS
BECMG 2509/2510 13006KT 8000 BR SCT016 OVC024 QNH3001INS
BECMG 2512/2513 15006KT 9999 NSW FEW023 SCT035 BKN110 QNH2994INS
BECMG 2518/2519 18006KT 9000 -SHRA SCT030 SCT045 BKN100 QNH2986INS TX27/2420Z TN17/2510Z LAST NO
AMDS AFT 2420 NEXT 2423

Example: see airport list